Terminal Aerodrome Forecast
Issued by NWS

Home | Current Version | Previous Version | Text Only | Print | Product List | Glossary On
Versions: 1 2 3 4 5 6 7 8 9 10 11 12 13 14 15 16 17 18 19 20 21 22 23 24 25 26 27
000
FTUS42 KRAH 060908 AAA
TAFINT
TAF AMD
KINT 060908Z 0609/0706 07005KT P6SM -RA BKN040
     FM061000 07009KT 4SM -RA BR SCT007 BKN010 OVC030
      TEMPO 0610/0612 3SM -RA BR OVC007
     FM061200 05010KT 2SM -RA BR OVC004
      TEMPO 0616/0620 1SM -RA BR OVC004
     FM062100 04005KT 4SM -DZ BR OVC004
     FM070000 36002KT 2SM BR OVC004=

USA.gov is the U.S. government's official web portal to all federal, state and local government web resources and services.